sensor_id;sensor_type;location;lat;lon;timestamp;P1;durP1;ratioP1;P2;durP2;ratioP2
77076;SDS011;66003;52.286;104.306;2023-06-10T00:00:41;5.05;;;4.10;;
77076;SDS011;66003;52.286;104.306;2023-06-10T00:03:07;6.07;;;3.90;;
77076;SDS011;66003;52.286;104.306;2023-06-10T00:05:34;5.35;;;3.92;;
77076;SDS011;66003;52.286;104.306;2023-06-10T00:08:01;5.47;;;4.35;;
77076;SDS011;66003;52.286;104.306;2023-06-10T00:10:34;6.07;;;4.03;;
77076;SDS011;66003;52.286;104.306;2023-06-10T00:13:02;5.85;;;4.07;;
77076;SDS011;66003;52.286;104.306;2023-06-10T00:15:30;7.07;;;4.07;;
77076;SDS011;66003;52.286;104.306;2023-06-10T00:17:57;6.07;;;4.07;;
77076;SDS011;66003;52.286;104.306;2023-06-10T00:20:23;5.40;;;3.97;;
77076;SDS011;66003;52.286;104.306;2023-06-10T00:22:50;6.50;;;4.15;;
77076;SDS011;66003;52.286;104.306;2023-06-10T00:25:16;6.32;;;3.88;;
77076;SDS011;66003;52.286;104.306;2023-06-10T00:27:42;5.45;;;4.53;;
77076;SDS011;66003;52.286;104.306;2023-06-10T00:30:09;6.85;;;4.90;;
77076;SDS011;66003;52.286;104.306;2023-06-10T00:32:36;5.38;;;4.25;;
77076;SDS011;66003;52.286;104.306;2023-06-10T00:35:03;5.10;;;4.00;;
77076;SDS011;66003;52.286;104.306;2023-06-10T00:37:30;6.63;;;4.72;;
77076;SDS011;66003;52.286;104.306;2023-06-10T00:39:56;5.88;;;3.95;;
77076;SDS011;66003;52.286;104.306;2023-06-10T00:42:22;5.25;;;4.28;;
77076;SDS011;66003;52.286;104.306;2023-06-10T00:44:51;5.45;;;3.97;;
77076;SDS011;66003;52.286;104.306;2023-06-10T00:47:20;5.55;;;4.30;;
77076;SDS011;66003;52.286;104.306;2023-06-10T00:49:47;8.57;;;4.78;;
77076;SDS011;66003;52.286;104.306;2023-06-10T00:52:17;6.45;;;3.92;;
77076;SDS011;66003;52.286;104.306;2023-06-10T00:54:45;4.97;;;3.95;;
77076;SDS011;66003;52.286;104.306;2023-06-10T00:57:12;7.43;;;3.88;;
77076;SDS011;66003;52.286;104.306;2023-06-10T00:59:43;4.07;;;3.45;;
77076;SDS011;66003;52.286;104.306;2023-06-10T01:02:13;5.20;;;3.92;;
77076;SDS011;66003;52.286;104.306;2023-06-10T01:04:39;5.22;;;4.00;;
77076;SDS011;66003;52.286;104.306;2023-06-10T01:07:10;5.50;;;3.33;;
77076;SDS011;66003;52.286;104.306;2023-06-10T01:12:54;4.38;;;2.95;;
77076;SDS011;66003;52.286;104.306;2023-06-10T01:15:25;6.03;;;3.85;;
77076;SDS011;66003;52.286;104.306;2023-06-10T01:17:54;5.05;;;3.45;;
77076;SDS011;66003;52.286;104.306;2023-06-10T01:20:22;4.25;;;3.50;;
77076;SDS011;66003;52.286;104.306;2023-06-10T01:22:49;5.00;;;3.50;;
77076;SDS011;66003;52.286;104.306;2023-06-10T01:25:16;4.97;;;3.88;;
77076;SDS011;66003;52.286;104.306;2023-06-10T01:27:45;5.70;;;3.70;;
77076;SDS011;66003;52.286;104.306;2023-06-10T01:30:15;5.70;;;4.15;;
77076;SDS011;66003;52.286;104.306;2023-06-10T01:32:48;5.10;;;3.95;;
77076;SDS011;66003;52.286;104.306;2023-06-10T01:35:17;5.78;;;3.90;;
77076;SDS011;66003;52.286;104.306;2023-06-10T01:37:46;5.75;;;4.07;;
77076;SDS011;66003;52.286;104.306;2023-06-10T01:40:14;5.45;;;4.15;;
77076;SDS011;66003;52.286;104.306;2023-06-10T01:42:42;5.18;;;3.67;;
77076;SDS011;66003;52.286;104.306;2023-06-10T01:45:08;5.10;;;3.72;;
77076;SDS011;66003;52.286;104.306;2023-06-10T01:47:35;5.43;;;4.10;;
77076;SDS011;66003;52.286;104.306;2023-06-10T01:50:01;6.30;;;4.45;;
77076;SDS011;66003;52.286;104.306;2023-06-10T01:52:31;5.65;;;3.97;;
77076;SDS011;66003;52.286;104.306;2023-06-10T01:54:57;5.97;;;4.28;;
77076;SDS011;66003;52.286;104.306;2023-06-10T01:57:24;5.20;;;4.25;;
77076;SDS011;66003;52.286;104.306;2023-06-10T01:59:50;9.10;;;4.53;;
77076;SDS011;66003;52.286;104.306;2023-06-10T02:02:16;8.05;;;4.28;;
77076;SDS011;66003;52.286;104.306;2023-06-10T02:04:42;4.82;;;4.40;;
77076;SDS011;66003;52.286;104.306;2023-06-10T02:07:09;4.35;;;3.53;;
77076;SDS011;66003;52.286;104.306;2023-06-10T02:09:35;6.72;;;4.63;;
77076;SDS011;66003;52.286;104.306;2023-06-10T02:12:03;6.63;;;4.00;;
77076;SDS011;66003;52.286;104.306;2023-06-10T02:14:30;5.20;;;3.92;;
77076;SDS011;66003;52.286;104.306;2023-06-10T02:16:58;6.20;;;4.63;;
77076;SDS011;66003;52.286;104.306;2023-06-10T02:19:24;4.72;;;3.45;;
77076;SDS011;66003;52.286;104.306;2023-06-10T02:21:52;5.63;;;4.10;;
77076;SDS011;66003;52.286;104.306;2023-06-10T02:24:18;4.60;;;3.90;;
77076;SDS011;66003;52.286;104.306;2023-06-10T02:26:45;4.38;;;3.45;;
77076;SDS011;66003;52.286;104.306;2023-06-10T02:29:11;5.13;;;3.67;;
77076;SDS011;66003;52.286;104.306;2023-06-10T02:31:37;4.45;;;4.05;;
77076;SDS011;66003;52.286;104.306;2023-06-10T02:34:05;4.75;;;3.78;;
77076;SDS011;66003;52.286;104.306;2023-06-10T02:36:31;4.03;;;3.63;;
77076;SDS011;66003;52.286;104.306;2023-06-10T02:38:57;6.65;;;4.30;;
77076;SDS011;66003;52.286;104.306;2023-06-10T02:41:23;6.07;;;4.13;;
77076;SDS011;66003;52.286;104.306;2023-06-10T02:43:50;4.15;;;3.67;;
77076;SDS011;66003;52.286;104.306;2023-06-10T02:46:16;6.40;;;4.30;;
77076;SDS011;66003;52.286;104.306;2023-06-10T02:48:43;5.07;;;3.65;;
77076;SDS011;66003;52.286;104.306;2023-06-10T02:51:09;5.75;;;4.75;;
77076;SDS011;66003;52.286;104.306;2023-06-10T02:53:36;4.82;;;4.00;;
77076;SDS011;66003;52.286;104.306;2023-06-10T02:56:02;5.22;;;4.40;;
77076;SDS011;66003;52.286;104.306;2023-06-10T02:58:29;5.47;;;4.05;;
77076;SDS011;66003;52.286;104.306;2023-06-10T03:00:55;4.95;;;3.50;;
77076;SDS011;66003;52.286;104.306;2023-06-10T03:03:21;5.20;;;3.90;;
77076;SDS011;66003;52.286;104.306;2023-06-10T03:05:48;7.47;;;4.25;;
77076;SDS011;66003;52.286;104.306;2023-06-10T03:08:14;5.85;;;3.88;;
77076;SDS011;66003;52.286;104.306;2023-06-10T03:10:40;6.28;;;3.97;;
77076;SDS011;66003;52.286;104.306;2023-06-10T03:13:06;7.45;;;4.20;;
77076;SDS011;66003;52.286;104.306;2023-06-10T03:15:32;6.68;;;3.75;;
77076;SDS011;66003;52.286;104.306;2023-06-10T03:17:59;7.32;;;4.70;;
77076;SDS011;66003;52.286;104.306;2023-06-10T03:20:26;7.47;;;4.45;;
77076;SDS011;66003;52.286;104.306;2023-06-10T03:22:53;5.20;;;4.03;;
77076;SDS011;66003;52.286;104.306;2023-06-10T03:25:19;6.43;;;4.28;;
77076;SDS011;66003;52.286;104.306;2023-06-10T03:27:46;7.07;;;3.78;;
77076;SDS011;66003;52.286;104.306;2023-06-10T03:30:13;6.68;;;4.03;;
77076;SDS011;66003;52.286;104.306;2023-06-10T03:32:39;9.95;;;4.10;;
77076;SDS011;66003;52.286;104.306;2023-06-10T03:35:06;5.88;;;3.58;;
77076;SDS011;66003;52.286;104.306;2023-06-10T03:37:33;7.28;;;3.60;;
77076;SDS011;66003;52.286;104.306;2023-06-10T03:39:59;7.40;;;3.88;;
77076;SDS011;66003;52.286;104.306;2023-06-10T03:42:25;5.20;;;3.05;;
77076;SDS011;66003;52.286;104.306;2023-06-10T03:44:52;8.80;;;4.35;;
77076;SDS011;66003;52.286;104.306;2023-06-10T03:47:18;5.78;;;3.53;;
77076;SDS011;66003;52.286;104.306;2023-06-10T03:49:44;5.25;;;3.13;;
77076;SDS011;66003;52.286;104.306;2023-06-10T03:52:11;4.68;;;2.75;;
77076;SDS011;66003;52.286;104.306;2023-06-10T03:54:37;5.53;;;3.63;;
77076;SDS011;66003;52.286;104.306;2023-06-10T03:57:03;8.23;;;4.15;;
77076;SDS011;66003;52.286;104.306;2023-06-10T03:59:31;6.90;;;4.40;;
77076;SDS011;66003;52.286;104.306;2023-06-10T04:01:57;7.30;;;4.22;;
77076;SDS011;66003;52.286;104.306;2023-06-10T04:04:23;6.97;;;3.80;;
77076;SDS011;66003;52.286;104.306;2023-06-10T04:06:50;6.72;;;3.92;;
77076;SDS011;66003;52.286;104.306;2023-06-10T04:09:17;7.20;;;4.20;;
77076;SDS011;66003;52.286;104.306;2023-06-10T04:11:44;6.72;;;3.95;;
77076;SDS011;66003;52.286;104.306;2023-06-10T04:14:10;6.97;;;3.55;;
77076;SDS011;66003;52.286;104.306;2023-06-10T04:16:36;7.43;;;4.05;;
77076;SDS011;66003;52.286;104.306;2023-06-10T04:19:03;7.68;;;3.53;;
77076;SDS011;66003;52.286;104.306;2023-06-10T04:21:30;6.47;;;3.80;;
77076;SDS011;66003;52.286;104.306;2023-06-10T04:23:56;6.80;;;3.50;;
77076;SDS011;66003;52.286;104.306;2023-06-10T04:26:22;10.07;;;4.57;;
77076;SDS011;66003;52.286;104.306;2023-06-10T04:28:48;6.47;;;3.85;;
77076;SDS011;66003;52.286;104.306;2023-06-10T04:31:15;7.75;;;4.45;;
77076;SDS011;66003;52.286;104.306;2023-06-10T04:33:41;6.47;;;4.28;;
77076;SDS011;66003;52.286;104.306;2023-06-10T04:36:07;7.32;;;4.65;;
77076;SDS011;66003;52.286;104.306;2023-06-10T04:38:33;6.95;;;4.18;;
77076;SDS011;66003;52.286;104.306;2023-06-10T04:41:00;6.88;;;4.38;;
77076;SDS011;66003;52.286;104.306;2023-06-10T04:43:26;8.60;;;4.30;;
77076;SDS011;66003;52.286;104.306;2023-06-10T04:45:54;7.50;;;4.97;;
77076;SDS011;66003;52.286;104.306;2023-06-10T04:48:21;8.25;;;4.75;;
77076;SDS011;66003;52.286;104.306;2023-06-10T04:50:49;6.55;;;4.05;;
77076;SDS011;66003;52.286;104.306;2023-06-10T04:53:15;7.63;;;4.40;;
77076;SDS011;66003;52.286;104.306;2023-06-10T04:55:42;8.27;;;4.40;;
77076;SDS011;66003;52.286;104.306;2023-06-10T04:58:09;7.38;;;4.32;;
77076;SDS011;66003;52.286;104.306;2023-06-10T05:00:35;7.13;;;4.60;;
77076;SDS011;66003;52.286;104.306;2023-06-10T05:03:01;6.35;;;5.00;;
77076;SDS011;66003;52.286;104.306;2023-06-10T05:05:28;7.07;;;5.00;;
77076;SDS011;66003;52.286;104.306;2023-06-10T05:07:54;8.63;;;4.50;;
77076;SDS011;66003;52.286;104.306;2023-06-10T05:10:20;9.43;;;5.10;;
77076;SDS011;66003;52.286;104.306;2023-06-10T05:12:46;7.90;;;3.90;;
77076;SDS011;66003;52.286;104.306;2023-06-10T05:15:13;6.75;;;4.82;;
77076;SDS011;66003;52.286;104.306;2023-06-10T05:17:39;6.50;;;4.72;;
77076;SDS011;66003;52.286;104.306;2023-06-10T05:20:05;7.85;;;4.45;;
77076;SDS011;66003;52.286;104.306;2023-06-10T05:22:32;14.77;;;5.53;;
77076;SDS011;66003;52.286;104.306;2023-06-10T05:24:58;7.93;;;4.68;;
77076;SDS011;66003;52.286;104.306;2023-06-10T05:27:24;11.00;;;4.45;;
77076;SDS011;66003;52.286;104.306;2023-06-10T05:29:51;6.78;;;3.85;;
77076;SDS011;66003;52.286;104.306;2023-06-10T05:32:17;8.00;;;4.82;;
77076;SDS011;66003;52.286;104.306;2023-06-10T05:34:44;7.50;;;4.32;;
77076;SDS011;66003;52.286;104.306;2023-06-10T05:37:12;8.63;;;4.18;;
77076;SDS011;66003;52.286;104.306;2023-06-10T05:39:39;7.25;;;3.95;;
77076;SDS011;66003;52.286;104.306;2023-06-10T05:42:07;4.95;;;3.75;;
77076;SDS011;66003;52.286;104.306;2023-06-10T05:44:34;7.30;;;4.38;;
77076;SDS011;66003;52.286;104.306;2023-06-10T05:47:01;5.75;;;3.95;;
77076;SDS011;66003;52.286;104.306;2023-06-10T05:49:27;7.03;;;4.15;;
77076;SDS011;66003;52.286;104.306;2023-06-10T05:51:53;7.90;;;4.90;;
77076;SDS011;66003;52.286;104.306;2023-06-10T05:54:21;10.60;;;4.35;;
77076;SDS011;66003;52.286;104.306;2023-06-10T05:56:47;7.18;;;4.18;;
77076;SDS011;66003;52.286;104.306;2023-06-10T05:59:14;7.20;;;3.67;;
77076;SDS011;66003;52.286;104.306;2023-06-10T06:01:40;4.90;;;3.72;;
77076;SDS011;66003;52.286;104.306;2023-06-10T06:04:06;8.38;;;5.10;;
77076;SDS011;66003;52.286;104.306;2023-06-10T06:06:32;5.70;;;4.05;;
77076;SDS011;66003;52.286;104.306;2023-06-10T06:08:58;5.88;;;4.32;;
77076;SDS011;66003;52.286;104.306;2023-06-10T06:11:25;5.20;;;3.45;;
77076;SDS011;66003;52.286;104.306;2023-06-10T06:13:52;5.32;;;3.53;;
77076;SDS011;66003;52.286;104.306;2023-06-10T06:16:18;6.30;;;4.57;;
77076;SDS011;66003;52.286;104.306;2023-06-10T06:18:45;7.57;;;4.38;;
77076;SDS011;66003;52.286;104.306;2023-06-10T06:21:11;6.15;;;4.25;;
77076;SDS011;66003;52.286;104.306;2023-06-10T06:23:37;7.32;;;4.15;;
77076;SDS011;66003;52.286;104.306;2023-06-10T06:26:03;6.35;;;3.80;;
77076;SDS011;66003;52.286;104.306;2023-06-10T06:28:29;7.75;;;3.63;;
77076;SDS011;66003;52.286;104.306;2023-06-10T06:30:57;5.75;;;4.05;;
77076;SDS011;66003;52.286;104.306;2023-06-10T06:33:23;5.72;;;3.85;;
77076;SDS011;66003;52.286;104.306;2023-06-10T06:35:52;6.35;;;3.63;;
77076;SDS011;66003;52.286;104.306;2023-06-10T06:38:19;8.63;;;4.25;;
77076;SDS011;66003;52.286;104.306;2023-06-10T06:40:45;10.55;;;4.00;;
77076;SDS011;66003;52.286;104.306;2023-06-10T06:43:11;6.55;;;4.07;;
77076;SDS011;66003;52.286;104.306;2023-06-10T06:45:37;6.55;;;3.97;;
77076;SDS011;66003;52.286;104.306;2023-06-10T06:48:04;5.90;;;3.97;;
77076;SDS011;66003;52.286;104.306;2023-06-10T06:50:31;6.72;;;4.07;;
77076;SDS011;66003;52.286;104.306;2023-06-10T06:52:57;8.32;;;4.50;;
77076;SDS011;66003;52.286;104.306;2023-06-10T06:55:23;7.00;;;4.38;;
77076;SDS011;66003;52.286;104.306;2023-06-10T06:57:49;11.40;;;4.85;;
77076;SDS011;66003;52.286;104.306;2023-06-10T07:00:15;7.82;;;4.90;;
77076;SDS011;66003;52.286;104.306;2023-06-10T07:02:42;8.18;;;4.82;;
77076;SDS011;66003;52.286;104.306;2023-06-10T07:05:08;12.50;;;5.20;;
77076;SDS011;66003;52.286;104.306;2023-06-10T07:07:34;7.60;;;4.90;;
77076;SDS011;66003;52.286;104.306;2023-06-10T07:10:01;8.27;;;4.97;;
77076;SDS011;66003;52.286;104.306;2023-06-10T07:12:30;7.78;;;4.47;;
77076;SDS011;66003;52.286;104.306;2023-06-10T07:14:56;7.32;;;4.25;;
77076;SDS011;66003;52.286;104.306;2023-06-10T07:17:22;6.28;;;4.60;;
77076;SDS011;66003;52.286;104.306;2023-06-10T07:19:49;6.60;;;4.82;;
77076;SDS011;66003;52.286;104.306;2023-06-10T07:22:17;7.05;;;5.38;;
77076;SDS011;66003;52.286;104.306;2023-06-10T07:24:43;6.07;;;4.78;;
77076;SDS011;66003;52.286;104.306;2023-06-10T07:27:09;6.20;;;4.80;;
77076;SDS011;66003;52.286;104.306;2023-06-10T07:29:35;7.35;;;4.85;;
77076;SDS011;66003;52.286;104.306;2023-06-10T07:32:03;9.60;;;5.65;;
77076;SDS011;66003;52.286;104.306;2023-06-10T07:34:29;7.80;;;5.35;;
77076;SDS011;66003;52.286;104.306;2023-06-10T07:36:56;7.43;;;5.35;;
77076;SDS011;66003;52.286;104.306;2023-06-10T07:39:22;7.70;;;5.07;;
77076;SDS011;66003;52.286;104.306;2023-06-10T07:41:48;7.50;;;5.30;;
77076;SDS011;66003;52.286;104.306;2023-06-10T07:44:15;10.00;;;5.60;;
77076;SDS011;66003;52.286;104.306;2023-06-10T07:46:41;10.35;;;5.25;;
77076;SDS011;66003;52.286;104.306;2023-06-10T07:49:07;7.97;;;4.90;;
77076;SDS011;66003;52.286;104.306;2023-06-10T07:51:33;9.75;;;5.50;;
77076;SDS011;66003;52.286;104.306;2023-06-10T07:54:00;8.13;;;5.47;;
77076;SDS011;66003;52.286;104.306;2023-06-10T07:56:26;6.25;;;5.22;;
77076;SDS011;66003;52.286;104.306;2023-06-10T07:58:52;7.25;;;5.60;;
77076;SDS011;66003;52.286;104.306;2023-06-10T08:01:18;8.98;;;5.40;;
77076;SDS011;66003;52.286;104.306;2023-06-10T08:03:45;8.20;;;5.00;;
77076;SDS011;66003;52.286;104.306;2023-06-10T08:06:11;7.45;;;5.90;;
77076;SDS011;66003;52.286;104.306;2023-06-10T08:08:37;7.95;;;5.07;;
77076;SDS011;66003;52.286;104.306;2023-06-10T08:11:08;6.85;;;4.63;;
77076;SDS011;66003;52.286;104.306;2023-06-10T08:13:36;7.07;;;4.95;;
77076;SDS011;66003;52.286;104.306;2023-06-10T08:16:04;7.82;;;5.28;;
77076;SDS011;66003;52.286;104.306;2023-06-10T08:18:30;8.27;;;5.35;;
77076;SDS011;66003;52.286;104.306;2023-06-10T08:20:56;7.85;;;5.18;;
77076;SDS011;66003;52.286;104.306;2023-06-10T08:23:23;8.50;;;5.90;;
77076;SDS011;66003;52.286;104.306;2023-06-10T08:25:49;9.07;;;5.90;;
77076;SDS011;66003;52.286;104.306;2023-06-10T08:28:16;10.68;;;6.15;;
77076;SDS011;66003;52.286;104.306;2023-06-10T08:30:42;8.07;;;6.00;;
77076;SDS011;66003;52.286;104.306;2023-06-10T08:33:08;10.68;;;6.30;;
77076;SDS011;66003;52.286;104.306;2023-06-10T08:35:35;7.53;;;5.95;;
77076;SDS011;66003;52.286;104.306;2023-06-10T08:38:01;6.07;;;4.82;;
77076;SDS011;66003;52.286;104.306;2023-06-10T08:40:27;8.95;;;6.32;;
77076;SDS011;66003;52.286;104.306;2023-06-10T08:43:00;8.23;;;5.28;;
77076;SDS011;66003;52.286;104.306;2023-06-10T08:45:34;7.78;;;5.53;;
77076;SDS011;66003;52.286;104.306;2023-06-10T08:48:04;8.63;;;5.82;;
77076;SDS011;66003;52.286;104.306;2023-06-10T08:50:35;6.70;;;5.10;;
77076;SDS011;66003;52.286;104.306;2023-06-10T08:53:02;10.27;;;6.03;;
77076;SDS011;66003;52.286;104.306;2023-06-10T08:55:37;8.05;;;5.25;;
77076;SDS011;66003;52.286;104.306;2023-06-10T08:58:07;10.25;;;5.65;;
77076;SDS011;66003;52.286;104.306;2023-06-10T09:00:34;9.15;;;5.82;;
77076;SDS011;66003;52.286;104.306;2023-06-10T09:03:03;13.25;;;6.95;;
77076;SDS011;66003;52.286;104.306;2023-06-10T09:05:33;9.77;;;6.18;;
77076;SDS011;66003;52.286;104.306;2023-06-10T09:08:00;7.45;;;5.50;;
77076;SDS011;66003;52.286;104.306;2023-06-10T09:10:26;7.50;;;5.75;;
77076;SDS011;66003;52.286;104.306;2023-06-10T09:12:53;7.90;;;5.88;;
77076;SDS011;66003;52.286;104.306;2023-06-10T09:15:20;7.95;;;5.72;;
77076;SDS011;66003;52.286;104.306;2023-06-10T09:17:46;8.32;;;5.38;;
77076;SDS011;66003;52.286;104.306;2023-06-10T09:20:12;7.70;;;6.30;;
77076;SDS011;66003;52.286;104.306;2023-06-10T09:22:38;11.52;;;5.78;;
77076;SDS011;66003;52.286;104.306;2023-06-10T09:25:05;7.47;;;4.88;;
77076;SDS011;66003;52.286;104.306;2023-06-10T09:27:50;7.38;;;5.07;;
77076;SDS011;66003;52.286;104.306;2023-06-10T09:30:34;7.68;;;5.10;;
77076;SDS011;66003;52.286;104.306;2023-06-10T09:33:02;7.80;;;5.57;;
77076;SDS011;66003;52.286;104.306;2023-06-10T09:35:35;10.25;;;5.93;;
77076;SDS011;66003;52.286;104.306;2023-06-10T09:38:01;9.18;;;5.97;;
77076;SDS011;66003;52.286;104.306;2023-06-10T09:40:28;8.52;;;5.35;;
77076;SDS011;66003;52.286;104.306;2023-06-10T09:42:59;8.63;;;6.18;;
77076;SDS011;66003;52.286;104.306;2023-06-10T09:45:30;9.48;;;5.93;;
77076;SDS011;66003;52.286;104.306;2023-06-10T09:50:24;7.57;;;5.10;;
77076;SDS011;66003;52.286;104.306;2023-06-10T09:52:51;8.15;;;5.88;;
77076;SDS011;66003;52.286;104.306;2023-06-10T09:55:17;9.63;;;6.43;;
77076;SDS011;66003;52.286;104.306;2023-06-10T09:57:48;9.13;;;5.50;;
77076;SDS011;66003;52.286;104.306;2023-06-10T10:00:15;9.55;;;5.93;;
77076;SDS011;66003;52.286;104.306;2023-06-10T10:02:49;9.48;;;6.25;;
77076;SDS011;66003;52.286;104.306;2023-06-10T10:05:18;8.02;;;5.45;;
77076;SDS011;66003;52.286;104.306;2023-06-10T10:07:46;9.10;;;5.63;;
77076;SDS011;66003;52.286;104.306;2023-06-10T10:10:13;9.43;;;6.35;;
77076;SDS011;66003;52.286;104.306;2023-06-10T10:12:42;8.27;;;5.97;;
77076;SDS011;66003;52.286;104.306;2023-06-10T10:15:09;8.13;;;5.68;;
77076;SDS011;66003;52.286;104.306;2023-06-10T10:17:39;8.45;;;5.20;;
77076;SDS011;66003;52.286;104.306;2023-06-10T10:20:11;7.95;;;6.30;;
77076;SDS011;66003;52.286;104.306;2023-06-10T10:22:41;8.68;;;6.47;;
77076;SDS011;66003;52.286;104.306;2023-06-10T10:25:13;7.72;;;5.97;;
77076;SDS011;66003;52.286;104.306;2023-06-10T10:27:51;8.90;;;5.60;;
77076;SDS011;66003;52.286;104.306;2023-06-10T10:30:20;9.43;;;5.90;;
77076;SDS011;66003;52.286;104.306;2023-06-10T10:35:17;9.82;;;6.15;;
77076;SDS011;66003;52.286;104.306;2023-06-10T10:37:52;8.50;;;5.47;;
77076;SDS011;66003;52.286;104.306;2023-06-10T10:40:20;10.02;;;6.45;;
77076;SDS011;66003;52.286;104.306;2023-06-10T10:42:51;7.82;;;5.60;;
77076;SDS011;66003;52.286;104.306;2023-06-10T10:45:19;8.68;;;5.78;;
77076;SDS011;66003;52.286;104.306;2023-06-10T10:47:51;9.18;;;6.18;;
77076;SDS011;66003;52.286;104.306;2023-06-10T10:50:19;9.50;;;5.38;;
77076;SDS011;66003;52.286;104.306;2023-06-10T10:52:53;7.75;;;5.97;;
77076;SDS011;66003;52.286;104.306;2023-06-10T10:55:22;9.15;;;6.22;;
77076;SDS011;66003;52.286;104.306;2023-06-10T11:00:31;8.82;;;5.80;;
77076;SDS011;66003;52.286;104.306;2023-06-10T11:03:07;13.05;;;5.88;;
77076;SDS011;66003;52.286;104.306;2023-06-10T11:05:39;10.07;;;5.40;;
77076;SDS011;66003;52.286;104.306;2023-06-10T11:08:14;9.00;;;5.68;;
77076;SDS011;66003;52.286;104.306;2023-06-10T11:10:42;8.77;;;6.07;;
77076;SDS011;66003;52.286;104.306;2023-06-10T11:13:21;11.45;;;6.15;;
77076;SDS011;66003;52.286;104.306;2023-06-10T11:15:48;8.45;;;5.90;;
77076;SDS011;66003;52.286;104.306;2023-06-10T11:18:23;8.40;;;6.03;;
77076;SDS011;66003;52.286;104.306;2023-06-10T11:29:04;9.07;;;5.68;;
77076;SDS011;66003;52.286;104.306;2023-06-10T11:31:44;10.32;;;5.75;;
77076;SDS011;66003;52.286;104.306;2023-06-10T11:34:13;10.30;;;5.60;;
77076;SDS011;66003;52.286;104.306;2023-06-10T11:36:40;8.60;;;5.72;;
77076;SDS011;66003;52.286;104.306;2023-06-10T11:39:08;9.77;;;5.70;;
77076;SDS011;66003;52.286;104.306;2023-06-10T11:41:36;10.95;;;5.80;;
77076;SDS011;66003;52.286;104.306;2023-06-10T11:44:06;12.00;;;5.22;;
77076;SDS011;66003;52.286;104.306;2023-06-10T11:46:34;9.32;;;5.22;;
77076;SDS011;66003;52.286;104.306;2023-06-10T11:49:01;11.05;;;6.38;;
77076;SDS011;66003;52.286;104.306;2023-06-10T11:51:29;11.32;;;5.85;;
77076;SDS011;66003;52.286;104.306;2023-06-10T11:54:01;10.65;;;6.68;;
77076;SDS011;66003;52.286;104.306;2023-06-10T11:56:29;8.27;;;6.03;;
77076;SDS011;66003;52.286;104.306;2023-06-10T11:59:00;9.32;;;5.82;;
77076;SDS011;66003;52.286;104.306;2023-06-10T12:01:30;9.50;;;5.85;;
77076;SDS011;66003;52.286;104.306;2023-06-10T12:03:59;10.68;;;6.22;;
77076;SDS011;66003;52.286;104.306;2023-06-10T12:06:37;9.60;;;5.57;;
77076;SDS011;66003;52.286;104.306;2023-06-10T12:09:05;9.23;;;5.53;;
77076;SDS011;66003;52.286;104.306;2023-06-10T12:11:32;10.88;;;6.40;;
77076;SDS011;66003;52.286;104.306;2023-06-10T12:13:59;10.32;;;6.32;;
77076;SDS011;66003;52.286;104.306;2023-06-10T12:16:25;10.38;;;5.70;;
77076;SDS011;66003;52.286;104.306;2023-06-10T12:19:00;11.10;;;6.60;;
77076;SDS011;66003;52.286;104.306;2023-06-10T12:21:28;10.77;;;6.30;;
77076;SDS011;66003;52.286;104.306;2023-06-10T12:26:41;10.52;;;5.70;;
77076;SDS011;66003;52.286;104.306;2023-06-10T12:29:17;10.38;;;5.80;;
77076;SDS011;66003;52.286;104.306;2023-06-10T12:31:54;8.52;;;5.72;;
77076;SDS011;66003;52.286;104.306;2023-06-10T12:34:35;11.00;;;5.57;;
77076;SDS011;66003;52.286;104.306;2023-06-10T12:37:04;12.18;;;5.75;;
77076;SDS011;66003;52.286;104.306;2023-06-10T12:39:35;8.38;;;6.05;;
77076;SDS011;66003;52.286;104.306;2023-06-10T12:42:01;10.15;;;5.38;;
77076;SDS011;66003;52.286;104.306;2023-06-10T12:44:29;8.52;;;4.93;;
77076;SDS011;66003;52.286;104.306;2023-06-10T12:47:00;10.43;;;5.13;;
77076;SDS011;66003;52.286;104.306;2023-06-10T12:49:33;9.13;;;5.40;;
77076;SDS011;66003;52.286;104.306;2023-06-10T12:52:00;12.30;;;5.57;;
77076;SDS011;66003;52.286;104.306;2023-06-10T12:54:27;9.60;;;5.22;;
77076;SDS011;66003;52.286;104.306;2023-06-10T12:56:53;7.70;;;5.28;;
77076;SDS011;66003;52.286;104.306;2023-06-10T12:59:19;9.32;;;5.18;;
77076;SDS011;66003;52.286;104.306;2023-06-10T13:01:54;9.30;;;5.28;;
77076;SDS011;66003;52.286;104.306;2023-06-10T13:04:21;9.93;;;4.85;;
77076;SDS011;66003;52.286;104.306;2023-06-10T13:06:48;8.10;;;4.57;;
77076;SDS011;66003;52.286;104.306;2023-06-10T13:09:15;9.23;;;5.00;;
77076;SDS011;66003;52.286;104.306;2023-06-10T13:11:42;8.98;;;5.50;;
77076;SDS011;66003;52.286;104.306;2023-06-10T13:14:09;8.65;;;4.82;;
77076;SDS011;66003;52.286;104.306;2023-06-10T13:16:36;10.48;;;4.72;;
77076;SDS011;66003;52.286;104.306;2023-06-10T13:19:04;8.95;;;5.38;;
77076;SDS011;66003;52.286;104.306;2023-06-10T13:21:34;8.60;;;4.90;;
77076;SDS011;66003;52.286;104.306;2023-06-10T13:24:00;8.40;;;5.18;;
77076;SDS011;66003;52.286;104.306;2023-06-10T13:26:27;7.32;;;3.70;;
77076;SDS011;66003;52.286;104.306;2023-06-10T13:28:54;5.95;;;3.85;;
77076;SDS011;66003;52.286;104.306;2023-06-10T13:31:20;9.00;;;5.38;;
77076;SDS011;66003;52.286;104.306;2023-06-10T13:33:46;7.95;;;5.07;;
77076;SDS011;66003;52.286;104.306;2023-06-10T13:36:13;7.45;;;4.10;;
77076;SDS011;66003;52.286;104.306;2023-06-10T13:38:39;10.15;;;4.70;;
77076;SDS011;66003;52.286;104.306;2023-06-10T13:41:05;7.13;;;4.30;;
77076;SDS011;66003;52.286;104.306;2023-06-10T13:43:32;9.18;;;4.88;;
77076;SDS011;66003;52.286;104.306;2023-06-10T13:45:58;7.68;;;4.53;;
77076;SDS011;66003;52.286;104.306;2023-06-10T13:48:24;8.50;;;4.97;;
77076;SDS011;66003;52.286;104.306;2023-06-10T13:50:50;10.38;;;5.07;;
77076;SDS011;66003;52.286;104.306;2023-06-10T13:53:17;10.77;;;4.90;;
77076;SDS011;66003;52.286;104.306;2023-06-10T13:55:43;8.02;;;4.05;;
77076;SDS011;66003;52.286;104.306;2023-06-10T13:58:09;7.57;;;4.90;;
77076;SDS011;66003;52.286;104.306;2023-06-10T14:00:35;9.25;;;5.45;;
77076;SDS011;66003;52.286;104.306;2023-06-10T14:03:02;9.98;;;6.28;;
77076;SDS011;66003;52.286;104.306;2023-06-10T14:05:29;12.68;;;7.20;;
77076;SDS011;66003;52.286;104.306;2023-06-10T14:07:55;12.98;;;6.28;;
77076;SDS011;66003;52.286;104.306;2023-06-10T14:10:21;16.40;;;8.32;;
77076;SDS011;66003;52.286;104.306;2023-06-10T14:12:48;11.32;;;7.10;;
77076;SDS011;66003;52.286;104.306;2023-06-10T14:15:14;13.80;;;7.10;;
77076;SDS011;66003;52.286;104.306;2023-06-10T14:17:40;14.10;;;6.88;;
77076;SDS011;66003;52.286;104.306;2023-06-10T14:20:07;10.45;;;6.13;;
77076;SDS011;66003;52.286;104.306;2023-06-10T14:22:33;10.75;;;5.70;;
77076;SDS011;66003;52.286;104.306;2023-06-10T14:25:00;10.32;;;4.93;;
77076;SDS011;66003;52.286;104.306;2023-06-10T14:27:26;8.88;;;5.35;;
77076;SDS011;66003;52.286;104.306;2023-06-10T14:29:52;11.52;;;5.45;;
77076;SDS011;66003;52.286;104.306;2023-06-10T14:32:18;10.07;;;5.03;;
77076;SDS011;66003;52.286;104.306;2023-06-10T14:34:44;10.30;;;5.75;;
77076;SDS011;66003;52.286;104.306;2023-06-10T14:37:12;8.10;;;5.70;;
77076;SDS011;66003;52.286;104.306;2023-06-10T14:39:38;10.15;;;4.80;;
77076;SDS011;66003;52.286;104.306;2023-06-10T14:42:05;9.30;;;4.72;;